Time;durP1;ratioP1;P1;durP2;ratioP2;P2;SDS_P1;SDS_P2;PMS_P1;PMS_P2;Temp;Humidity;BMP_temperature;BMP_pressure;BME280_temperature;BME280_humidity;BME280_pressure;Samples;Min_cycle;Max_cycle;Signal;HPM_P1;HPM_P2
2022/01/21 00:01:25;;;;;;;5.37;3.60;;;3.60;76.30;;;;;;4922646;28;20470;-47
2022/01/21 00:03:53;;;;;;;7.57;3.80;;;3.60;76.70;;;;;;4953371;28;21030;-47
2022/01/21 00:06:20;;;;;;;6.17;3.80;;;3.70;77.30;;;;;;4922263;28;20498;-48
2022/01/21 00:08:48;;;;;;;9.70;3.73;;;3.60;77.10;;;;;;4949749;28;20455;-49
2022/01/21 00:11:15;;;;;;;3.93;3.27;;;3.60;77.30;;;;;;4938960;28;20495;-50
2022/01/21 00:13:44;;;;;;;8.87;4.33;;;3.70;77.00;;;;;;4939891;29;20976;-48
2022/01/21 00:16:14;;;;;;;12.00;5.20;;;3.70;77.90;;;;;;4943789;29;20476;-48
2022/01/21 00:18:45;;;;;;;5.70;3.57;;;3.70;77.30;;;;;;4957573;28;20498;-49
2022/01/21 00:32:16;;;;;;;7.97;3.40;;;3.60;78.40;;;;;;4961228;28;20467;-50
2022/01/21 00:34:43;;;;;;;5.80;3.07;;;3.60;78.90;;;;;;4940296;29;20536;-50
2022/01/21 00:37:10;;;;;;;7.30;3.57;;;3.60;79.20;;;;;;4934160;29;20466;-50
2022/01/21 00:39:38;;;;;;;5.30;3.23;;;3.60;79.10;;;;;;4940477;28;20487;-50
2022/01/21 00:42:30;;;;;;;12.90;3.03;;;3.50;79.10;;;;;;4938259;29;20995;-49
2022/01/21 00:44:59;;;;;;;6.40;2.90;;;3.50;79.20;;;;;;4957903;28;20488;-50
2022/01/21 00:47:27;;;;;;;5.97;3.03;;;3.50;79.40;;;;;;4952955;28;20495;-49
2022/01/21 00:49:54;;;;;;;7.73;3.40;;;3.50;79.60;;;;;;4944283;29;20464;-50
2022/01/21 00:52:21;;;;;;;5.37;3.70;;;3.50;79.70;;;;;;4949051;28;20549;-50
2022/01/21 00:54:48;;;;;;;7.50;3.87;;;3.50;79.70;;;;;;4958098;28;20479;-50
2022/01/21 00:57:15;;;;;;;5.90;3.30;;;3.50;79.30;;;;;;4958384;28;20466;-49
2022/01/21 00:59:42;;;;;;;8.30;3.50;;;3.50;79.50;;;;;;4960226;28;20552;-49
2022/01/21 01:02:08;;;;;;;6.30;3.33;;;3.40;79.60;;;;;;4960730;28;20517;-49
2022/01/21 01:04:35;;;;;;;3.87;3.50;;;3.40;80.00;;;;;;4939486;29;20956;-49
2022/01/21 01:07:04;;;;;;;5.77;3.23;;;3.40;80.00;;;;;;4953315;28;21050;-49
2022/01/21 01:09:30;;;;;;;4.83;3.60;;;3.30;80.20;;;;;;4944578;29;20917;-49
2022/01/21 01:20:10;;;;;;;3.70;3.07;;;3.30;80.00;;;;;;4959434;28;20458;-49
2022/01/21 01:22:59;;;;;;;8.60;4.20;;;3.30;79.80;;;;;;4937063;29;20558;-49
2022/01/21 01:28:11;;;;;;;9.60;3.90;;;3.20;79.70;;;;;;4955453;29;20541;-49
2022/01/21 01:30:38;;;;;;;8.10;4.10;;;3.20;79.70;;;;;;4956023;28;20964;-48
2022/01/21 01:33:09;;;;;;;6.03;3.90;;;3.20;79.60;;;;;;4937725;29;20495;-48
2022/01/21 01:35:36;;;;;;;9.47;3.97;;;3.20;79.70;;;;;;4937988;28;20470;-49
2022/01/21 01:40:57;;;;;;;9.20;4.03;;;3.10;79.50;;;;;;4950308;28;20519;-49
2022/01/21 01:51:30;;;;;;;5.00;4.57;;;3.10;78.60;;;;;;4953114;28;20462;-49
2022/01/21 01:54:05;;;;;;;10.73;4.50;;;3.00;78.70;;;;;;4957011;28;20463;-50
2022/01/21 01:56:36;;;;;;;8.70;4.43;;;3.00;78.90;;;;;;4942690;28;20452;-49
2022/01/21 01:59:03;;;;;;;11.27;4.70;;;3.00;78.90;;;;;;4954267;28;20487;-49
2022/01/21 02:01:30;;;;;;;9.60;4.50;;;3.00;79.10;;;;;;4941794;29;20887;-50
2022/01/21 02:03:58;;;;;;;7.10;4.03;;;2.90;79.10;;;;;;4958635;28;20495;-49
2022/01/21 02:06:25;;;;;;;5.67;3.80;;;3.00;78.50;;;;;;4956053;28;20490;-49
2022/01/21 02:08:51;;;;;;;8.10;3.83;;;3.00;78.80;;;;;;4941196;28;20491;-49
2022/01/21 02:11:18;;;;;;;7.70;3.97;;;2.90;78.40;;;;;;4956868;28;20877;-49
2022/01/21 02:13:49;;;;;;;5.03;4.00;;;2.90;78.70;;;;;;4941366;28;20577;-50
2022/01/21 02:24:17;;;;;;;10.90;5.27;;;2.90;78.10;;;;;;4949302;28;20513;-49
2022/01/21 02:26:47;;;;;;;12.30;4.77;;;2.90;78.50;;;;;;4953182;28;20902;-49
2022/01/21 02:29:25;;;;;;;5.97;4.20;;;2.90;78.80;;;;;;4940464;29;20508;-49
2022/01/21 02:31:54;;;;;;;8.97;4.70;;;2.90;78.60;;;;;;4950639;28;20477;-49
2022/01/21 02:34:21;;;;;;;6.30;4.20;;;2.90;78.10;;;;;;4954803;28;20538;-48
2022/01/21 02:36:48;;;;;;;7.00;4.60;;;2.90;77.70;;;;;;4942784;28;20468;-49
2022/01/21 02:39:15;;;;;;;14.70;5.10;;;2.90;77.60;;;;;;4950757;28;20455;-49
2022/01/21 02:41:42;;;;;;;13.20;5.63;;;2.80;78.40;;;;;;4957039;28;20459;-50
2022/01/21 02:44:14;;;;;;;9.30;4.33;;;2.80;78.40;;;;;;4951109;28;20510;-49
2022/01/21 02:46:42;;;;;;;9.77;4.53;;;2.80;78.40;;;;;;4949938;28;20507;-49
2022/01/21 02:49:09;;;;;;;8.20;5.93;;;2.80;77.90;;;;;;4949924;28;20460;-50
2022/01/21 02:51:37;;;;;;;9.40;4.93;;;2.80;77.90;;;;;;4935712;28;20470;-49
2022/01/21 02:54:04;;;;;;;9.20;4.40;;;2.80;78.50;;;;;;4938903;28;21096;-48
2022/01/21 02:56:36;;;;;;;7.17;5.60;;;2.80;78.60;;;;;;4952826;28;20487;-49
2022/01/21 02:59:04;;;;;;;5.33;4.70;;;2.80;78.70;;;;;;4951427;28;20477;-49
2022/01/21 03:01:32;;;;;;;12.13;5.13;;;2.80;78.30;;;;;;4953182;28;20531;-48
2022/01/21 03:04:00;;;;;;;5.90;4.90;;;2.80;78.10;;;;;;4953138;28;20466;-50
2022/01/21 03:06:27;;;;;;;7.87;4.67;;;2.70;78.40;;;;;;4939976;28;20547;-50
2022/01/21 03:08:57;;;;;;;9.93;4.47;;;2.70;78.80;;;;;;4939680;28;20460;-50
2022/01/21 03:11:25;;;;;;;7.37;5.27;;;2.70;79.30;;;;;;4924845;29;20574;-49
2022/01/21 03:13:55;;;;;;;9.87;5.50;;;2.80;79.20;;;;;;4954535;28;20558;-49
2022/01/21 03:16:23;;;;;;;14.33;5.73;;;2.80;78.40;;;;;;4965668;28;20465;-47
2022/01/21 03:18:50;;;;;;;10.80;4.60;;;2.80;78.70;;;;;;4952263;28;20526;-48
2022/01/21 03:21:17;;;;;;;8.03;5.27;;;2.80;78.80;;;;;;4943587;28;20469;-49
2022/01/21 03:23:50;;;;;;;11.43;4.60;;;2.80;78.70;;;;;;4953490;28;20490;-48
2022/01/21 03:26:19;;;;;;;11.50;4.97;;;2.80;78.70;;;;;;4936477;28;20550;-48
2022/01/21 03:28:48;;;;;;;10.07;6.20;;;2.80;78.70;;;;;;4953159;28;20458;-48
2022/01/21 03:31:15;;;;;;;7.27;5.07;;;2.80;78.40;;;;;;4953727;28;20456;-49
2022/01/21 03:33:42;;;;;;;11.07;4.87;;;2.80;78.70;;;;;;4955642;28;20940;-48
2022/01/21 03:36:10;;;;;;;6.70;4.10;;;2.80;78.60;;;;;;4947955;28;20498;-49
2022/01/21 03:38:37;;;;;;;10.93;5.20;;;2.80;78.70;;;;;;4954429;28;20518;-49
2022/01/21 03:41:05;;;;;;;9.27;4.10;;;2.80;78.70;;;;;;4953119;28;20474;-49
2022/01/21 03:43:32;;;;;;;7.33;5.20;;;2.80;78.80;;;;;;4934352;28;20465;-49
2022/01/21 03:46:00;;;;;;;15.33;5.43;;;2.80;78.50;;;;;;4951068;28;20466;-49
2022/01/21 03:48:27;;;;;;;8.40;4.40;;;2.80;78.80;;;;;;4954962;28;20994;-49
2022/01/21 03:50:54;;;;;;;14.53;5.87;;;2.80;79.00;;;;;;4956493;28;20506;-49
2022/01/21 03:53:21;;;;;;;10.40;4.90;;;2.80;78.80;;;;;;4953255;28;20467;-47
2022/01/21 03:55:49;;;;;;;9.70;5.40;;;2.80;78.60;;;;;;4925527;28;20473;-47
2022/01/21 03:58:16;;;;;;;5.43;3.90;;;2.80;78.70;;;;;;4949412;28;20470;-47
2022/01/21 04:00:46;;;;;;;12.23;4.80;;;2.80;78.80;;;;;;4946170;28;20762;-47
2022/01/21 04:03:14;;;;;;;7.30;4.17;;;2.80;78.80;;;;;;4931548;28;20464;-47
2022/01/21 04:05:41;;;;;;;11.77;5.10;;;2.80;78.70;;;;;;4935816;29;20936;-47
2022/01/21 04:08:10;;;;;;;9.80;4.70;;;2.80;78.90;;;;;;4949491;28;20579;-49
2022/01/21 04:10:41;;;;;;;8.33;4.40;;;2.70;78.90;;;;;;4946206;28;20459;-47
2022/01/21 04:13:16;;;;;;;5.73;4.17;;;2.80;78.70;;;;;;4923433;28;20462;-48
2022/01/21 04:15:48;;;;;;;6.53;4.97;;;2.80;78.60;;;;;;4943040;28;20480;-46
2022/01/21 04:18:17;;;;;;;7.90;5.07;;;2.70;78.90;;;;;;4926789;28;20543;-46
2022/01/21 04:20:47;;;;;;;7.97;5.17;;;2.70;78.90;;;;;;4935099;28;20494;-46
2022/01/21 04:23:15;;;;;;;7.20;6.03;;;2.70;78.80;;;;;;4946324;28;20583;-46
2022/01/21 04:25:44;;;;;;;8.73;5.03;;;2.70;79.00;;;;;;4947376;28;20477;-47
2022/01/21 04:28:11;;;;;;;11.37;5.60;;;2.70;79.00;;;;;;4942563;28;20838;-47
2022/01/21 04:30:38;;;;;;;16.43;5.70;;;2.70;79.10;;;;;;4946782;28;20550;-47
2022/01/21 04:33:05;;;;;;;12.83;5.97;;;2.70;79.00;;;;;;4929343;28;20466;-47
2022/01/21 04:35:33;;;;;;;8.47;5.93;;;2.70;79.20;;;;;;4948930;28;20470;-47
2022/01/21 04:38:04;;;;;;;9.27;5.53;;;2.70;79.10;;;;;;4923894;29;20470;-47
2022/01/21 04:40:37;;;;;;;9.80;5.33;;;2.70;79.00;;;;;;4945601;28;20467;-47
2022/01/21 04:48:36;;;;;;;13.90;6.33;;;2.70;79.50;;;;;;4946158;28;20498;-47
2022/01/21 04:53:40;;;;;;;7.47;5.73;;;2.70;79.60;;;;;;4944425;28;20474;-48
2022/01/21 04:56:07;;;;;;;12.83;5.97;;;2.70;79.70;;;;;;4945928;28;20481;-47
2022/01/21 04:58:34;;;;;;;11.40;6.20;;;2.70;79.80;;;;;;4945293;28;20459;-48
2022/01/21 05:01:04;;;;;;;12.10;5.40;;;2.80;79.90;;;;;;4943219;28;20476;-48
2022/01/21 05:03:32;;;;;;;17.77;8.30;;;2.70;79.70;;;;;;4942550;28;20494;-47
2022/01/21 05:06:00;;;;;;;16.17;7.30;;;2.70;79.90;;;;;;4925596;28;20458;-47
2022/01/21 05:08:44;;;;;;;12.73;6.00;;;2.70;80.10;;;;;;4932348;29;20855;-47
2022/01/21 05:11:13;;;;;;;12.47;6.50;;;2.80;80.40;;;;;;4933590;28;20463;-47
2022/01/21 05:13:51;;;;;;;12.23;6.60;;;2.80;80.50;;;;;;4944341;28;20860;-47
2022/01/21 05:18:56;;;;;;;11.47;6.40;;;2.90;80.30;;;;;;4947293;28;20464;-47
2022/01/21 05:21:23;;;;;;;11.50;6.67;;;2.90;79.70;;;;;;4945933;28;20474;-47
2022/01/21 05:23:50;;;;;;;11.50;5.80;;;2.90;79.90;;;;;;4942971;28;21028;-47
2022/01/21 05:26:17;;;;;;;9.43;6.40;;;2.90;80.30;;;;;;4943404;28;20467;-47
2022/01/21 05:28:43;;;;;;;9.10;6.80;;;2.90;80.40;;;;;;4943029;28;21071;-46
2022/01/21 05:31:10;;;;;;;13.43;6.47;;;2.90;80.20;;;;;;4939913;28;20960;-46
2022/01/21 05:33:37;;;;;;;11.87;6.40;;;2.90;80.30;;;;;;4924545;28;20502;-46
2022/01/21 05:36:04;;;;;;;9.30;5.50;;;2.90;80.40;;;;;;4944045;28;20458;-46
2022/01/21 05:38:31;;;;;;;8.47;6.60;;;2.90;80.50;;;;;;4931182;28;20470;-47
2022/01/21 05:40:57;;;;;;;10.07;6.40;;;3.00;80.20;;;;;;4929440;28;20468;-46
2022/01/21 05:43:24;;;;;;;10.40;6.60;;;3.00;79.60;;;;;;4943385;28;20469;-47
2022/01/21 05:48:37;;;;;;;8.33;5.73;;;3.00;79.40;;;;;;4943494;28;20493;-47
2022/01/21 05:51:04;;;;;;;12.27;6.93;;;2.90;80.00;;;;;;4946207;28;20833;-47
2022/01/21 05:53:30;;;;;;;12.80;6.30;;;2.90;80.40;;;;;;4943726;28;20818;-46
2022/01/21 05:56:01;;;;;;;11.23;6.00;;;2.90;80.60;;;;;;4922044;28;20903;-46
2022/01/21 05:58:28;;;;;;;12.93;7.07;;;3.00;80.30;;;;;;4929874;28;20901;-47
2022/01/21 06:00:55;;;;;;;11.50;7.47;;;2.90;80.50;;;;;;4942018;28;20932;-46
2022/01/21 06:03:22;;;;;;;15.20;7.43;;;3.00;80.80;;;;;;4944370;28;20473;-46
2022/01/21 06:05:51;;;;;;;11.27;6.50;;;3.00;80.80;;;;;;4927659;29;20495;-47
2022/01/21 06:08:18;;;;;;;17.97;7.73;;;3.00;80.50;;;;;;4939372;28;20502;-47
2022/01/21 06:10:45;;;;;;;14.53;7.10;;;3.10;80.50;;;;;;4925036;28;20459;-47
2022/01/21 06:13:15;;;;;;;14.33;6.50;;;3.10;80.30;;;;;;4939594;28;20567;-46
2022/01/21 06:15:43;;;;;;;14.57;7.20;;;3.10;80.30;;;;;;4940115;28;20473;-47
2022/01/21 06:18:10;;;;;;;25.67;8.50;;;3.10;80.10;;;;;;4944260;28;20949;-47
2022/01/21 06:20:37;;;;;;;13.43;8.07;;;3.10;80.10;;;;;;4941543;28;21048;-47
2022/01/21 06:23:05;;;;;;;12.90;7.53;;;3.10;80.20;;;;;;4940735;28;21344;-46
2022/01/21 06:25:32;;;;;;;14.60;7.00;;;3.10;80.30;;;;;;4925651;29;20474;-47
2022/01/21 06:27:58;;;;;;;12.27;6.97;;;3.10;80.10;;;;;;4939727;28;20496;-47
2022/01/21 06:30:25;;;;;;;9.53;6.73;;;3.10;80.30;;;;;;4922764;29;21035;-48
2022/01/21 06:32:54;;;;;;;15.40;8.00;;;3.10;80.30;;;;;;4940784;28;20469;-47
2022/01/21 06:35:21;;;;;;;14.23;8.20;;;3.10;80.30;;;;;;4943534;28;20463;-46
2022/01/21 06:37:48;;;;;;;9.80;6.50;;;3.10;80.50;;;;;;4925449;29;20534;-47
2022/01/21 06:40:17;;;;;;;13.40;6.90;;;3.10;80.60;;;;;;4914667;29;20460;-46
2022/01/21 06:42:44;;;;;;;9.77;6.80;;;3.00;80.80;;;;;;4943601;28;21006;-47
2022/01/21 06:45:11;;;;;;;12.37;8.23;;;3.00;81.10;;;;;;4923785;29;20455;-46
2022/01/21 06:47:38;;;;;;;10.93;8.30;;;3.00;81.30;;;;;;4937155;28;21075;-46
2022/01/21 06:50:06;;;;;;;9.40;7.00;;;3.00;81.30;;;;;;4939295;28;20926;-46
2022/01/21 06:52:34;;;;;;;15.40;8.10;;;3.00;81.40;;;;;;4941865;28;20469;-47
2022/01/21 06:55:01;;;;;;;8.63;6.73;;;3.00;81.10;;;;;;4940856;28;20566;-46
2022/01/21 06:57:29;;;;;;;12.93;7.90;;;2.90;81.00;;;;;;4930643;29;20680;-47
2022/01/21 06:59:56;;;;;;;12.20;7.27;;;2.90;81.10;;;;;;4943346;28;20894;-47
2022/01/21 07:02:23;;;;;;;11.20;6.53;;;2.90;81.20;;;;;;4940695;28;20455;-47
2022/01/21 07:04:50;;;;;;;8.70;6.90;;;2.90;81.30;;;;;;4927127;29;20783;-47
2022/01/21 07:07:20;;;;;;;14.83;8.03;;;2.90;81.50;;;;;;4941657;28;20460;-47
2022/01/21 07:09:47;;;;;;;11.77;7.90;;;2.90;81.40;;;;;;4931250;28;20458;-46
2022/01/21 07:12:14;;;;;;;12.10;7.00;;;2.90;81.40;;;;;;4923943;28;20478;-46
2022/01/21 07:14:41;;;;;;;19.97;9.13;;;2.90;81.00;;;;;;4950033;28;21017;-46
2022/01/21 07:17:08;;;;;;;12.13;7.80;;;2.90;81.20;;;;;;4942820;28;21032;-47
2022/01/21 07:19:35;;;;;;;11.53;8.27;;;2.80;81.30;;;;;;4944264;28;20498;-47
2022/01/21 07:22:02;;;;;;;16.57;8.30;;;2.80;81.50;;;;;;4943988;28;20496;-47
2022/01/21 07:24:29;;;;;;;16.80;8.53;;;2.80;81.70;;;;;;4950220;28;20984;-47
2022/01/21 07:26:56;;;;;;;15.63;8.87;;;2.80;81.90;;;;;;4948772;28;20447;-47
2022/01/21 07:29:23;;;;;;;13.30;8.00;;;2.80;82.30;;;;;;4949575;28;20486;-47
2022/01/21 07:31:54;;;;;;;13.63;8.47;;;2.80;82.50;;;;;;4944622;28;20991;-47
2022/01/21 07:34:22;;;;;;;10.20;7.23;;;2.80;82.60;;;;;;4949071;28;20871;-47
2022/01/21 07:36:49;;;;;;;16.37;8.77;;;2.90;82.60;;;;;;4927506;28;20465;-47
2022/01/21 07:39:15;;;;;;;17.73;8.10;;;2.90;82.60;;;;;;4943557;28;20467;-47
2022/01/21 07:41:44;;;;;;;19.13;8.63;;;2.90;82.50;;;;;;4923397;29;20549;-47
2022/01/21 07:44:12;;;;;;;14.53;8.03;;;2.90;82.40;;;;;;4930557;28;20463;-48
2022/01/21 07:46:41;;;;;;;13.00;7.77;;;2.90;82.20;;;;;;4948579;28;20823;-47
2022/01/21 07:49:09;;;;;;;13.53;7.70;;;2.90;81.80;;;;;;4947818;28;20494;-46
2022/01/21 07:51:36;;;;;;;14.17;8.23;;;2.90;82.00;;;;;;4933016;28;20463;-47
2022/01/21 07:54:04;;;;;;;13.67;8.53;;;2.90;82.00;;;;;;4950191;28;20471;-47
2022/01/21 07:56:33;;;;;;;12.70;7.47;;;2.90;81.80;;;;;;4936280;28;20454;-47
2022/01/21 07:59:05;;;;;;;24.07;9.60;;;2.90;82.20;;;;;;4948357;28;20885;-47
2022/01/21 08:01:32;;;;;;;15.63;10.50;;;2.90;82.30;;;;;;4949582;28;20537;-47
2022/01/21 08:03:59;;;;;;;25.03;11.80;;;3.00;82.10;;;;;;4946325;28;20468;-47
2022/01/21 08:06:26;;;;;;;13.67;8.50;;;3.00;81.90;;;;;;4933337;28;20836;-46
2022/01/21 08:08:54;;;;;;;20.37;8.33;;;3.00;82.10;;;;;;4933935;29;20513;-47
2022/01/21 08:11:21;;;;;;;18.60;8.50;;;3.00;82.30;;;;;;4938328;28;20474;-47
2022/01/21 08:13:48;;;;;;;13.00;7.77;;;3.00;82.70;;;;;;4943704;28;20452;-47
2022/01/21 08:16:15;;;;;;;17.30;9.33;;;3.00;82.50;;;;;;4928917;28;21169;-46
2022/01/21 08:18:42;;;;;;;14.13;8.70;;;3.00;82.60;;;;;;4950030;28;20824;-47
2022/01/21 08:21:10;;;;;;;13.20;8.60;;;3.10;83.10;;;;;;4934271;29;20459;-47
2022/01/21 08:23:37;;;;;;;12.17;8.37;;;3.10;82.90;;;;;;4924291;28;20558;-47
2022/01/21 08:26:04;;;;;;;20.80;7.40;;;3.20;82.70;;;;;;4950137;28;20555;-47
2022/01/21 08:28:30;;;;;;;16.73;10.00;;;3.20;82.80;;;;;;4953957;28;20880;-47
2022/01/21 08:30:57;;;;;;;10.93;8.10;;;3.20;82.70;;;;;;4932682;28;20456;-47
2022/01/21 08:33:25;;;;;;;10.13;8.10;;;3.20;82.70;;;;;;4945889;28;20466;-47
2022/01/21 08:35:52;;;;;;;13.63;8.27;;;3.20;82.40;;;;;;4943844;28;20452;-48
2022/01/21 08:38:21;;;;;;;15.37;8.40;;;3.20;82.70;;;;;;4928093;29;20463;-47
2022/01/21 08:40:48;;;;;;;14.87;8.47;;;3.30;82.70;;;;;;4945121;28;20458;-47
2022/01/21 08:43:15;;;;;;;21.40;10.80;;;3.30;82.30;;;;;;4931242;29;20466;-47
2022/01/21 08:45:42;;;;;;;24.83;9.90;;;3.40;82.30;;;;;;4945419;28;20463;-47
2022/01/21 08:48:10;;;;;;;16.30;7.33;;;3.40;81.90;;;;;;4945987;28;20488;-47
2022/01/21 08:50:37;;;;;;;13.30;7.40;;;3.40;81.80;;;;;;4944062;28;20466;-47
2022/01/21 08:53:35;;;;;;;13.63;7.17;;;3.40;81.40;;;;;;4942762;28;20486;-46
2022/01/21 08:55:54;;;;;;;9.07;5.70;;;3.40;81.40;;;;;;4944796;28;20472;-47
2022/01/21 08:58:21;;;;;;;19.70;7.87;;;3.40;81.60;;;;;;4945072;28;20462;-46
2022/01/21 09:00:48;;;;;;;16.60;7.97;;;3.40;81.50;;;;;;4946132;28;20490;-47
2022/01/21 09:03:15;;;;;;;17.30;7.23;;;3.50;81.70;;;;;;4924466;28;20453;-47
2022/01/21 09:05:48;;;;;;;13.30;7.27;;;3.50;81.70;;;;;;4913286;28;20486;-47
2022/01/21 09:08:16;;;;;;;10.27;6.80;;;3.50;81.90;;;;;;4941334;28;20526;-46
2022/01/21 09:10:43;;;;;;;13.83;7.87;;;3.50;81.60;;;;;;4929844;29;20459;-47
2022/01/21 09:13:10;;;;;;;10.20;6.00;;;3.60;81.60;;;;;;4912080;28;22114;-47
2022/01/21 09:15:37;;;;;;;12.80;7.13;;;3.70;81.30;;;;;;4944485;28;20567;-46
2022/01/21 09:18:06;;;;;;;12.47;6.50;;;3.70;81.40;;;;;;4946179;28;20965;-47
2022/01/21 09:20:34;;;;;;;8.40;6.37;;;3.70;81.00;;;;;;4947035;28;20463;-47
2022/01/21 09:23:01;;;;;;;8.50;5.87;;;3.80;80.50;;;;;;4930380;29;21081;-46
2022/01/21 09:25:28;;;;;;;7.10;5.20;;;3.80;80.40;;;;;;4944941;28;20475;-47
2022/01/21 09:27:55;;;;;;;11.70;6.53;;;3.80;80.40;;;;;;4944525;28;20490;-47
2022/01/21 09:30:22;;;;;;;9.17;6.27;;;3.90;80.40;;;;;;4940512;28;20458;-46
2022/01/21 09:32:58;;;;;;;9.07;6.03;;;3.90;80.30;;;;;;4947020;28;20472;-48
2022/01/21 09:35:25;;;;;;;10.67;6.77;;;4.00;80.40;;;;;;4945501;28;20485;-47
2022/01/21 09:37:52;;;;;;;11.87;7.43;;;4.00;80.30;;;;;;4929939;29;20459;-47
2022/01/21 09:40:44;;;;;;;9.17;5.83;;;4.10;80.30;;;;;;4933578;28;21045;-47
2022/01/21 09:43:11;;;;;;;11.27;6.03;;;4.10;80.10;;;;;;4928128;28;20472;-46
2022/01/21 09:45:39;;;;;;;7.17;4.93;;;4.20;79.80;;;;;;4930256;29;20478;-47
2022/01/21 09:48:08;;;;;;;10.40;5.80;;;4.20;79.30;;;;;;4943116;28;20463;-47
2022/01/21 09:50:35;;;;;;;8.30;5.10;;;4.20;79.30;;;;;;4940772;28;20468;-47
2022/01/21 09:53:03;;;;;;;8.03;5.43;;;4.20;79.40;;;;;;4899769;29;20464;-47
2022/01/21 09:55:33;;;;;;;11.10;5.60;;;4.20;79.40;;;;;;4932055;28;20477;-48
2022/01/21 09:58:00;;;;;;;10.43;5.37;;;4.20;79.50;;;;;;4930195;29;20547;-47
2022/01/21 10:00:28;;;;;;;10.17;5.33;;;4.30;79.50;;;;;;4942515;28;21234;-47
2022/01/21 10:02:59;;;;;;;8.53;4.60;;;4.30;79.10;;;;;;4928304;28;20459;-47
2022/01/21 10:05:26;;;;;;;8.50;4.93;;;4.40;78.20;;;;;;4926028;28;20557;-47
2022/01/21 10:07:54;;;;;;;10.83;5.00;;;4.40;78.10;;;;;;4944032;28;20462;-46
2022/01/21 10:10:21;;;;;;;9.70;5.30;;;4.40;78.30;;;;;;4946042;28;20493;-47
2022/01/21 10:12:50;;;;;;;10.43;5.50;;;4.40;78.40;;;;;;4943414;28;20473;-47
2022/01/21 10:15:19;;;;;;;10.83;5.07;;;4.40;78.40;;;;;;4925952;28;20590;-47
2022/01/21 10:18:05;;;;;;;9.70;5.13;;;4.50;78.50;;;;;;4942991;28;20859;-47
2022/01/21 10:20:58;;;;;;;7.87;4.40;;;4.50;78.70;;;;;;4923756;29;20481;-46
2022/01/21 10:23:27;;;;;;;6.60;5.30;;;4.60;78.90;;;;;;4921301;29;20495;-47
2022/01/21 10:26:12;;;;;;;6.70;4.97;;;4.60;78.60;;;;;;4943808;28;20456;-47
2022/01/21 10:28:41;;;;;;;12.73;6.00;;;4.60;78.10;;;;;;4946481;28;21107;-47
2022/01/21 10:31:19;;;;;;;9.03;6.10;;;4.60;77.90;;;;;;4943914;28;20469;-47
2022/01/21 10:33:51;;;;;;;10.27;5.67;;;4.60;77.80;;;;;;4929319;29;20466;-47
2022/01/21 10:36:26;;;;;;;9.60;5.67;;;4.60;77.90;;;;;;4942658;28;20468;-47
2022/01/21 10:39:13;;;;;;;8.87;5.83;;;4.60;78.10;;;;;;4945969;28;20462;-47
2022/01/21 10:41:44;;;;;;;7.37;5.13;;;4.50;78.30;;;;;;4924889;28;20859;-47
2022/01/21 10:44:13;;;;;;;11.63;5.67;;;4.60;78.40;;;;;;4921400;28;20478;-47
2022/01/21 10:46:43;;;;;;;11.23;5.93;;;4.60;77.80;;;;;;4918550;28;20476;-47
2022/01/21 10:49:12;;;;;;;6.30;5.63;;;4.60;77.40;;;;;;4940034;28;20483;-47
2022/01/21 10:51:41;;;;;;;9.73;5.63;;;4.60;77.70;;;;;;4941484;28;20487;-47
2022/01/21 10:54:17;;;;;;;8.10;4.57;;;4.60;78.00;;;;;;4944534;28;20466;-47
2022/01/21 10:57:04;;;;;;;6.53;5.20;;;4.60;77.40;;;;;;4944370;28;20454;-47
2022/01/21 11:00:09;;;;;;;7.30;5.27;;;4.60;77.20;;;;;;4942209;28;20477;-47
2022/01/21 11:02:48;;;;;;;10.13;6.07;;;4.70;77.50;;;;;;4926529;29;20463;-47
2022/01/21 11:05:27;;;;;;;13.20;4.67;;;4.70;77.00;;;;;;4938705;28;21034;-47
2022/01/21 11:08:04;;;;;;;11.17;4.90;;;4.80;77.00;;;;;;4943026;28;20903;-47
2022/01/21 11:10:37;;;;;;;10.17;4.80;;;4.90;75.30;;;;;;4941427;28;20502;-47
2022/01/21 11:13:11;;;;;;;8.20;4.90;;;4.90;75.10;;;;;;4952811;28;20831;-47
2022/01/21 11:15:47;;;;;;;9.10;4.00;;;5.00;75.50;;;;;;4943969;28;20471;-47
2022/01/21 11:19:04;;;;;;;6.47;4.47;;;5.00;75.80;;;;;;4940630;28;20486;-47
2022/01/21 11:21:45;;;;;;;11.63;3.93;;;5.00;75.50;;;;;;4941571;28;20462;-46
2022/01/21 11:24:13;;;;;;;9.50;4.30;;;5.00;75.60;;;;;;4935984;28;20729;-47
2022/01/21 11:26:40;;;;;;;3.77;3.47;;;5.00;75.90;;;;;;4938167;28;20459;-46
2022/01/21 11:29:09;;;;;;;6.00;4.07;;;5.10;75.60;;;;;;4942706;28;20499;-47
2022/01/21 11:31:37;;;;;;;10.60;4.17;;;5.10;75.60;;;;;;4930375;29;20447;-47
2022/01/21 11:34:09;;;;;;;7.50;3.17;;;5.10;75.70;;;;;;4944385;28;20865;-47
2022/01/21 11:36:36;;;;;;;4.50;2.90;;;5.20;75.50;;;;;;4939362;28;20495;-47
2022/01/21 11:39:04;;;;;;;5.87;2.67;;;5.30;74.70;;;;;;4943124;28;21043;-47
2022/01/21 11:41:34;;;;;;;5.87;2.97;;;5.40;74.70;;;;;;4940502;28;20566;-46
2022/01/21 11:44:03;;;;;;;22.63;3.90;;;5.40;74.00;;;;;;4942631;28;20463;-47
2022/01/21 11:49:09;;;;;;;3.90;3.50;;;5.40;74.00;;;;;;4939697;28;22259;-47
2022/01/21 11:51:38;;;;;;;4.83;3.10;;;5.40;73.50;;;;;;4941883;28;20824;-47
2022/01/21 11:54:11;;;;;;;6.23;3.13;;;5.40;74.00;;;;;;4927530;28;20554;-47
2022/01/21 11:56:44;;;;;;;4.63;4.17;;;5.30;74.20;;;;;;4925841;29;20462;-47
2022/01/21 11:59:16;;;;;;;7.73;3.63;;;5.30;73.80;;;;;;4944300;28;20464;-46
2022/01/21 12:01:48;;;;;;;3.90;2.80;;;5.30;73.60;;;;;;4942862;28;20470;-47
2022/01/21 12:04:39;;;;;;;6.43;3.33;;;5.20;73.50;;;;;;4927350;29;20467;-48
2022/01/21 12:07:36;;;;;;;3.83;2.70;;;5.20;74.00;;;;;;4937983;28;20961;-47
2022/01/21 12:10:07;;;;;;;7.53;2.90;;;5.20;74.20;;;;;;4926008;28;20511;-47
2022/01/21 12:15:35;;;;;;;3.97;3.57;;;5.30;74.80;;;;;;4944743;28;20831;-47
2022/01/21 12:18:10;;;;;;;9.13;3.40;;;5.40;74.20;;;;;;4945688;28;20551;-47
2022/01/21 12:20:37;;;;;;;6.13;3.20;;;5.40;73.80;;;;;;4943475;28;20473;-48
2022/01/21 12:23:18;;;;;;;4.03;3.10;;;5.50;73.90;;;;;;4925944;28;20715;-46
2022/01/21 12:26:13;;;;;;;4.10;3.50;;;5.50;74.00;;;;;;4934710;28;20458;-47
2022/01/21 12:28:44;;;;;;;3.73;2.83;;;5.60;74.00;;;;;;4944186;28;20553;-47
2022/01/21 12:31:14;;;;;;;3.73;3.23;;;5.70;74.30;;;;;;4932729;28;20469;-48
2022/01/21 12:34:14;;;;;;;6.80;3.47;;;5.80;74.10;;;;;;4946893;28;20648;-46
2022/01/21 12:36:49;;;;;;;6.73;3.27;;;5.90;73.60;;;;;;4928432;28;20459;-48
2022/01/21 12:39:41;;;;;;;5.60;3.40;;;5.90;73.30;;;;;;4945354;28;20490;-48
2022/01/21 12:42:25;;;;;;;9.60;3.63;;;6.00;72.30;;;;;;4944956;28;20470;-48
2022/01/21 12:45:17;;;;;;;4.00;2.90;;;6.00;72.50;;;;;;4945812;28;20473;-47
2022/01/21 12:47:46;;;;;;;5.97;3.00;;;5.90;73.30;;;;;;4946051;28;20544;-48
2022/01/21 12:58:26;;;;;;;4.60;3.17;;;5.90;72.80;;;;;;4945599;28;20459;-50
2022/01/21 13:00:57;;;;;;;7.50;3.20;;;5.90;73.40;;;;;;4944134;28;20494;-50
2022/01/21 13:03:42;;;;;;;4.40;4.00;;;5.90;73.60;;;;;;4925143;29;20462;-49
2022/01/21 13:06:42;;;;;;;6.70;3.90;;;5.90;73.70;;;;;;4944970;28;20467;-49
2022/01/21 13:09:18;;;;;;;5.23;3.50;;;5.90;73.40;;;;;;4929108;29;21019;-50
2022/01/21 13:11:59;;;;;;;7.00;3.60;;;6.00;73.60;;;;;;4946377;28;20496;-49
2022/01/21 13:14:34;;;;;;;4.80;4.17;;;6.00;73.50;;;;;;4947022;28;20473;-49
2022/01/21 13:17:06;;;;;;;4.60;3.40;;;6.00;73.70;;;;;;4933921;28;20458;-49
2022/01/21 13:19:43;;;;;;;8.13;2.97;;;6.00;73.60;;;;;;4945657;28;20464;-50
2022/01/21 13:22:16;;;;;;;4.70;3.80;;;6.00;74.00;;;;;;4944269;28;20493;-50
2022/01/21 13:25:03;;;;;;;5.90;3.33;;;6.00;73.80;;;;;;4926004;28;20467;-49
2022/01/21 13:27:33;;;;;;;5.83;3.40;;;6.00;73.50;;;;;;4908389;28;20478;-46
2022/01/21 13:30:12;;;;;;;4.80;3.73;;;6.00;74.10;;;;;;4945685;28;20862;-46
2022/01/21 13:32:38;;;;;;;7.67;2.97;;;5.90;74.60;;;;;;4942538;28;20471;-45
2022/01/21 13:35:09;;;;;;;5.20;3.80;;;5.90;75.10;;;;;;4925132;28;20634;-45
2022/01/21 13:37:38;;;;;;;8.23;3.63;;;5.90;75.30;;;;;;4935334;28;20964;-46
2022/01/21 13:40:08;;;;;;;3.40;2.60;;;6.00;74.60;;;;;;4925377;28;20470;-45
2022/01/21 13:42:36;;;;;;;2.60;2.40;;;6.10;73.60;;;;;;4911136;28;20470;-46
2022/01/21 13:45:11;;;;;;;4.60;2.90;;;6.00;73.80;;;;;;4932939;28;20546;-46
2022/01/21 13:47:46;;;;;;;5.87;2.67;;;6.00;73.60;;;;;;4925689;29;21096;-46
2022/01/21 13:50:22;;;;;;;5.63;2.90;;;6.00;73.60;;;;;;4943285;28;20920;-46
2022/01/21 13:52:52;;;;;;;4.17;3.00;;;5.90;73.50;;;;;;4946690;28;20469;-45
2022/01/21 13:55:41;;;;;;;3.57;2.77;;;5.90;74.20;;;;;;4945562;28;20463;-45
2022/01/21 13:58:12;;;;;;;4.40;2.47;;;5.90;74.10;;;;;;4946254;28;20478;-46
2022/01/21 14:00:41;;;;;;;3.00;2.47;;;5.90;73.40;;;;;;4947585;28;20456;-46
2022/01/21 14:03:28;;;;;;;4.10;2.67;;;5.90;73.80;;;;;;4943272;28;20467;-46
2022/01/21 14:06:00;;;;;;;4.93;2.87;;;5.90;74.20;;;;;;4930412;29;20519;-45
2022/01/21 14:08:34;;;;;;;7.03;2.60;;;5.90;74.30;;;;;;4942970;28;20475;-46
2022/01/21 14:11:09;;;;;;;4.30;2.60;;;5.90;74.50;;;;;;4941009;29;20495;-46
2022/01/21 14:13:39;;;;;;;7.67;2.80;;;5.90;75.00;;;;;;4948639;28;20484;-46
2022/01/21 14:16:13;;;;;;;12.90;4.03;;;5.90;74.60;;;;;;4947160;28;20852;-47
2022/01/21 14:18:42;;;;;;;2.73;2.47;;;5.90;74.70;;;;;;4928358;28;21002;-47